Ozona, TX

12:17 AM CST on November 18, 2017 (GMT -0600)
Ozona Municipal | | Change Station
Active Advisory: Wind Advisory

Elev 2382 ft 30.74 °N, 101.20 °W | Updated 22 minutes ago

Clear
Clear
63 °F
Feels Like 63 °F
N
8
Wind Variable Wind from SW

Today
High -- | Low -- °F
--% Chance of Precip.
Yesterday
High -- | Low -- °F
Precip. -- in
Pressure 29.91 in
Visibility -9999.0 miles
Clouds
Dew Point 61 °F
Humidity 94%
Rainfall 0.00 in
Snow Depth Not available.
7:14 AM 5:45 PM
Waning Crescent, 0% visible
METAR KOZA 180555Z AUTO 23007KT 17/16 A2991 RMK AO2 PWINO
Pressure 29.91 in
Visibility -9999.0 miles
Clouds
Dew Point 61 °F
Humidity 94%
Rainfall 0.00 in
Snow Depth Not available.
7:14 AM 5:45 PM
Waning Crescent, 0% visible
METAR KOZA 180555Z AUTO 23007KT 17/16 A2991 RMK AO2 PWINO

Get Your Daily Forecast Email!

Thanks for signing up!

Be on the lookout for a verification email in your inbox.

You'll start receiving severe weather alerts in your inbox..

×

10-Day Weather Forecast

Almanac

Astronomy

Nov. 18, 2017 Rise Set
Actual Time
Civil Twilight
Nautical Twilight
Astronomical Twilight
Moon
Length of Visible Light
Length of Day
Tomorrow will be .
, % of the Moon is Illuminated

Today's Extremes

State Highs State Lows

Community

WunderPhotos

Category 6

Welcome to Category 6. This is the collective home for Weather Underground's featured writeups by Dr. Jeff Masters (right), Bob Henson (left), Chris Burt, and other regular contributors.

Nearby

Air Quality

  Air Quality AQ Index Pollutant
Not available.

Snow Depth

Station Depth Elevation

Earthquake Activity

City Distance Mag. Time & Date
Minimum magnitude displayed is 2.5.

Coastal Water Temperatures

Place Temperature

Stations

Nearby Weather Stations

Station Location Temp. Windchill Dew Point Humidity Wind Precip. Elev Updated Type
                   

Watches & Warnings

Wind Advisory
Issued: 10:56 PM CST Nov. 17, 2017 – National Weather Service

... Wind Advisory remains in effect from 6 am to 3 PM CST
Saturday...

* timing... 6 am to 3 PM

* winds... north 25 to 35 with gusts up to 40 mph.

* Impacts... hazardous driving conditions, especially on west to
east roadways such as Interstate 20, Interstate 10 and Highway
87. Loose objects will be blown around.

Precautionary/preparedness actions...

A Wind Advisory means that winds of 30 to 39 mph are expected.
Winds this strong can make driving difficult... especially for
high profile vehicles. Use extra caution.